Time,TemperatureF,DewpointF,PressureIn,WindDirection,WindDirectionDegrees,WindSpeedMPH,WindSpeedGustMPH,Humidity,HourlyPrecipIn,Conditions,Clouds,dailyrainin,SoftwareType,DateUTC
2013-04-10 00:02:00,32.0,29.0,30.06,NE,55,2.0,2.0,90,0.09,,,1.31,,2013-04-10 05:02:00,
2013-04-10 00:13:00,32.0,29.0,30.06,NE,55,2.0,2.0,90,0.09,,,1.31,,2013-04-10 05:13:00,
2013-04-10 00:23:00,32.0,29.0,30.07,NW,321,2.0,2.0,90,0.17,,,1.34,,2013-04-10 05:23:00,
2013-04-10 00:33:00,32.0,29.0,30.11,NW,326,2.0,2.0,89,0.08,,,1.36,,2013-04-10 05:33:00,
2013-04-10 00:42:00,32.0,29.0,30.11,NW,326,2.0,2.0,89,0.08,,,1.36,,2013-04-10 05:42:00,
2013-04-10 00:53:00,32.0,29.0,30.11,NE,53,1.0,1.0,89,0.00,,,1.36,,2013-04-10 05:53:00,
2013-04-10 01:03:00,32.0,29.0,30.11,NNW,346,1.0,1.0,90,0.00,,,1.36,,2013-04-10 06:03:00,
2013-04-10 01:12:00,31.0,29.0,30.11,North,355,0.0,0.0,91,0.00,,,1.36,,2013-04-10 06:12:00,
2013-04-10 01:22:00,31.0,29.0,30.11,North,355,0.0,0.0,91,0.00,,,1.36,,2013-04-10 06:22:00,
2013-04-10 01:32:00,31.0,29.0,30.11,NE,36,0.0,0.0,91,0.00,,,0.00,,2013-04-10 06:32:00,
2013-04-10 01:42:00,31.0,29.0,30.11,NE,36,0.0,0.0,91,0.00,,,0.00,,2013-04-10 06:42:00,
2013-04-10 01:52:00,31.0,29.0,30.12,East,82,2.0,2.0,91,0.00,,,0.00,,2013-04-10 06:52:00,
2013-04-10 02:02:00,30.0,27.0,29.99,ENE,74,9.0,9.0,90,0.00,,,0.00,,2013-04-10 07:02:00,
2013-04-10 02:12:00,30.0,27.0,29.99,ENE,74,9.0,9.0,90,0.00,,,0.00,,2013-04-10 07:12:00,
2013-04-10 02:22:00,30.0,27.0,29.93,ENE,71,8.0,8.0,90,0.00,,,0.00,,2013-04-10 07:22:00,
2013-04-10 02:32:00,30.0,27.0,30.01,ESE,119,3.0,3.0,90,0.00,,,0.00,,2013-04-10 07:32:00,
2013-04-10 02:42:00,30.0,27.0,30.01,ESE,119,3.0,3.0,90,0.00,,,0.00,,2013-04-10 07:42:00,
2013-04-10 02:52:00,30.0,27.0,30.01,NE,38,5.0,5.0,89,0.00,,,0.00,,2013-04-10 07:52:00,
2013-04-10 03:02:00,29.0,26.0,29.98,ENE,67,10.0,10.0,89,0.00,,,0.00,,2013-04-10 08:02:00,
2013-04-10 03:12:00,29.0,26.0,29.98,ENE,67,10.0,10.0,89,0.00,,,0.00,,2013-04-10 08:12:00,
2013-04-10 03:22:00,29.0,26.0,30.01,NW,321,1.0,1.0,89,0.00,,,0.00,,2013-04-10 08:22:00,
2013-04-10 03:32:00,29.0,26.0,30.01,NNE,27,2.0,2.0,88,0.00,,,0.00,,2013-04-10 08:32:00,
2013-04-10 03:42:00,29.0,26.0,30.01,NNE,27,2.0,2.0,88,0.00,,,0.00,,2013-04-10 08:42:00,
2013-04-10 03:52:00,29.0,26.0,30.01,ENE,69,3.0,3.0,88,0.00,,,0.00,,2013-04-10 08:52:00,
2013-04-10 04:12:00,30.0,27.0,30.04,East,90,1.0,1.0,88,0.00,,,0.00,,2013-04-10 09:12:00,
2013-04-10 04:22:00,30.0,27.0,30.04,East,90,1.0,1.0,88,0.00,,,0.00,,2013-04-10 09:22:00,
2013-04-10 04:32:00,29.0,26.0,30.06,NNE,30,0.0,0.0,89,0.00,,,0.00,,2013-04-10 09:32:00,
2013-04-10 04:43:00,29.0,26.0,30.06,NNE,30,0.0,0.0,89,0.00,,,0.00,,2013-04-10 09:43:00,
2013-04-10 04:53:00,29.0,26.0,30.09,NE,50,2.0,2.0,88,0.00,,,0.00,,2013-04-10 09:53:00,
2013-04-10 05:03:00,29.0,26.0,30.10,NNW,337,0.0,0.0,88,0.00,,,0.00,,2013-04-10 10:03:00,
2013-04-10 05:12:00,29.0,26.0,30.09,NE,53,0.0,0.0,88,0.00,,,0.00,,2013-04-10 10:12:00,
2013-04-10 05:23:00,29.0,26.0,30.09,NE,53,0.0,0.0,88,0.00,,,0.00,,2013-04-10 10:23:00,
2013-04-10 05:33:00,29.0,26.0,30.06,North,360,4.0,4.0,88,0.00,,,0.00,,2013-04-10 10:33:00,
2013-04-10 05:42:00,29.0,26.0,30.06,North,360,4.0,4.0,88,0.00,,,0.00,,2013-04-10 10:42:00,
2013-04-10 05:52:00,29.0,26.0,30.03,ENE,74,3.0,3.0,87,0.00,,,0.00,,2013-04-10 10:52:00,
2013-04-10 06:02:00,29.0,26.0,30.01,ENE,66,2.0,2.0,88,0.00,,,0.00,,2013-04-10 11:02:00,
2013-04-10 06:12:00,29.0,26.0,30.01,ENE,66,2.0,2.0,88,0.00,,,0.00,,2013-04-10 11:12:00,
2013-04-10 06:22:00,29.0,26.0,29.96,ENE,65,3.0,3.0,88,0.00,,,0.00,,2013-04-10 11:22:00,
2013-04-10 06:32:00,29.0,26.0,29.98,North,355,3.0,3.0,88,0.00,,,0.00,,2013-04-10 11:32:00,
2013-04-10 06:42:00,29.0,26.0,29.98,North,355,3.0,3.0,88,0.00,,,0.00,,2013-04-10 11:42:00,
2013-04-10 06:53:00,29.0,26.0,29.99,East,82,2.0,2.0,88,0.00,,,0.00,,2013-04-10 11:53:00,
2013-04-10 07:03:00,29.0,26.0,29.99,ENE,67,3.0,3.0,87,0.00,,,0.00,,2013-04-10 12:03:00,
2013-04-10 07:12:00,29.0,26.0,29.99,ENE,67,3.0,3.0,87,0.00,,,0.00,,2013-04-10 12:12:00,
2013-04-10 07:22:00,29.0,26.0,29.98,ENE,77,5.0,5.0,87,0.00,,,0.00,,2013-04-10 12:22:00,
2013-04-10 07:33:00,29.0,26.0,29.98,ENE,66,1.0,1.0,88,0.00,,,0.00,,2013-04-10 12:33:00,
2013-04-10 07:42:00,29.0,26.0,29.98,ENE,66,1.0,1.0,88,0.00,,,0.00,,2013-04-10 12:42:00,
2013-04-10 07:52:00,30.0,27.0,30.01,ENE,61,1.0,1.0,88,0.00,,,0.00,,2013-04-10 12:52:00,
2013-04-10 08:02:00,30.0,27.0,29.99,ENE,58,3.0,3.0,87,0.00,,,0.00,,2013-04-10 13:02:00,
2013-04-10 08:12:00,30.0,27.0,29.99,ENE,58,3.0,3.0,87,0.00,,,0.00,,2013-04-10 13:12:00,
2013-04-10 08:23:00,30.0,27.0,30.01,East,84,6.0,6.0,87,0.00,,,0.00,,2013-04-10 13:23:00,
2013-04-10 08:32:00,30.0,27.0,30.02,NE,50,3.0,3.0,87,0.00,,,0.00,,2013-04-10 13:32:00,
2013-04-10 08:43:00,30.0,27.0,30.02,NE,50,3.0,3.0,87,0.00,,,0.00,,2013-04-10 13:43:00,
2013-04-10 08:53:00,30.0,26.0,30.03,ENE,76,5.0,5.0,86,0.00,,,0.00,,2013-04-10 13:53:00,
2013-04-10 09:02:00,31.0,27.0,30.03,ENE,76,2.0,2.0,85,0.00,,,0.00,,2013-04-10 14:02:00,
2013-04-10 09:12:00,31.0,27.0,30.03,ENE,76,2.0,2.0,85,0.00,,,0.00,,2013-04-10 14:12:00,
2013-04-10 09:22:00,31.0,26.0,30.01,NNE,28,0.0,0.0,83,0.00,,,0.00,,2013-04-10 14:22:00,
2013-04-10 09:32:00,31.0,26.0,30.01,ENE,65,4.0,4.0,80,0.00,,,0.00,,2013-04-10 14:32:00,
2013-04-10 09:42:00,31.0,26.0,30.01,ENE,65,4.0,4.0,80,0.00,,,0.00,,2013-04-10 14:42:00,
2013-04-10 09:52:00,32.0,26.0,30.02,East,101,3.0,3.0,79,0.00,,,0.00,,2013-04-10 14:52:00,
2013-04-10 10:02:00,32.0,27.0,30.03,ESE,106,5.0,5.0,80,0.00,,,0.01,,2013-04-10 15:02:00,
2013-04-10 10:12:00,32.0,27.0,30.03,ESE,106,5.0,5.0,80,0.00,,,0.01,,2013-04-10 15:12:00,
2013-04-10 10:22:00,32.0,26.0,30.03,NNE,33,2.0,2.0,79,0.00,,,0.01,,2013-04-10 15:22:00,
2013-04-10 10:32:00,32.0,27.0,30.03,East,86,3.0,3.0,80,0.00,,,0.02,,2013-04-10 15:32:00,
2013-04-10 10:42:00,32.0,27.0,30.03,East,86,3.0,3.0,80,0.00,,,0.02,,2013-04-10 15:42:00,
2013-04-10 10:52:00,32.0,27.0,30.04,ENE,61,3.0,3.0,80,0.00,,,0.02,,2013-04-10 15:52:00,
2013-04-10 11:03:00,32.0,26.0,30.03,ESE,107,3.0,3.0,79,0.00,,,0.02,,2013-04-10 16:03:00,
2013-04-10 11:13:00,32.0,26.0,30.03,ESE,107,3.0,3.0,79,0.00,,,0.02,,2013-04-10 16:13:00,
2013-04-10 11:23:00,32.0,26.0,30.04,ENE,71,1.0,1.0,79,0.00,,,0.03,,2013-04-10 16:23:00,
2013-04-10 11:33:00,33.0,27.0,30.02,ENE,72,4.0,4.0,79,0.00,,,0.03,,2013-04-10 16:33:00,
2013-04-10 11:43:00,33.0,27.0,30.02,ENE,72,4.0,4.0,79,0.00,,,0.03,,2013-04-10 16:43:00,
2013-04-10 11:53:00,33.0,27.0,30.01,ENE,65,2.0,2.0,78,0.00,,,0.04,,2013-04-10 16:53:00,
2013-04-10 12:02:00,33.0,27.0,29.99,NE,55,3.0,3.0,78,0.00,,,0.04,,2013-04-10 17:02:00,
2013-04-10 12:12:00,33.0,28.0,29.98,East,84,3.0,3.0,80,0.00,,,0.04,,2013-04-10 17:12:00,
2013-04-10 12:22:00,33.0,28.0,29.98,East,84,3.0,3.0,80,0.00,,,0.04,,2013-04-10 17:22:00,
2013-04-10 12:33:00,33.0,28.0,29.98,WNW,293,2.0,2.0,81,0.00,,,0.05,,2013-04-10 17:33:00,
2013-04-10 12:43:00,33.0,28.0,29.98,WNW,293,2.0,2.0,81,0.00,,,0.05,,2013-04-10 17:43:00,
2013-04-10 12:52:00,33.0,28.0,29.98,ENE,77,4.0,4.0,82,0.00,,,0.05,,2013-04-10 17:52:00,
2013-04-10 13:02:00,33.0,28.0,29.99,ENE,65,3.0,3.0,81,0.00,,,0.06,,2013-04-10 18:02:00,
2013-04-10 13:12:00,33.0,28.0,29.99,ENE,65,3.0,3.0,81,0.00,,,0.06,,2013-04-10 18:12:00,
2013-04-10 13:23:00,33.0,28.0,30.01,North,5,3.0,3.0,81,0.00,,,0.06,,2013-04-10 18:23:00,
2013-04-10 13:33:00,33.0,28.0,30.01,ENE,71,2.0,2.0,82,0.00,,,0.06,,2013-04-10 18:33:00,
2013-04-10 13:42:00,33.0,28.0,30.01,ENE,71,2.0,2.0,82,0.00,,,0.06,,2013-04-10 18:42:00,
2013-04-10 13:52:00,33.0,28.0,30.01,NNW,340,1.0,1.0,82,0.00,,,0.07,,2013-04-10 18:52:00,
2013-04-10 14:03:00,33.0,28.0,30.01,East,82,0.0,0.0,82,0.00,,,0.07,,2013-04-10 19:03:00,
2013-04-10 14:12:00,33.0,28.0,30.01,East,82,0.0,0.0,82,0.00,,,0.07,,2013-04-10 19:12:00,
2013-04-10 14:22:00,33.0,29.0,30.03,NE,50,0.0,0.0,84,0.00,,,0.07,,2013-04-10 19:22:00,
2013-04-10 14:33:00,33.0,29.0,30.04,ENE,61,1.0,1.0,86,0.00,,,0.08,,2013-04-10 19:33:00,
2013-04-10 14:42:00,33.0,29.0,30.04,ENE,61,1.0,1.0,86,0.00,,,0.08,,2013-04-10 19:42:00,
2013-04-10 14:53:00,33.0,30.0,30.02,NE,55,1.0,1.0,87,0.11,,,0.10,,2013-04-10 19:53:00,
2013-04-10 15:02:00,34.0,31.0,30.01,NNW,337,2.0,2.0,89,0.08,,,0.12,,2013-04-10 20:02:00,
2013-04-10 15:12:00,34.0,31.0,30.03,NW,320,2.0,2.0,88,0.08,,,0.14,,2013-04-10 20:12:00,
2013-04-10 15:23:00,34.0,31.0,30.03,NW,320,2.0,2.0,88,0.08,,,0.14,,2013-04-10 20:23:00,
2013-04-10 15:33:00,33.0,30.0,30.02,NW,317,1.0,1.0,89,0.04,,,0.15,,2013-04-10 20:33:00,
2013-04-10 15:42:00,33.0,30.0,30.01,ENE,71,3.0,3.0,89,0.07,,,0.17,,2013-04-10 20:42:00,
2013-04-10 15:52:00,33.0,30.0,30.01,ENE,71,3.0,3.0,89,0.07,,,0.17,,2013-04-10 20:52:00,
2013-04-10 16:02:00,33.0,30.0,30.01,NE,36,1.0,1.0,89,0.06,,,0.18,,2013-04-10 21:02:00,
2013-04-10 16:12:00,33.0,30.0,30.01,NE,36,1.0,1.0,89,0.06,,,0.18,,2013-04-10 21:12:00,
2013-04-10 16:22:00,33.0,30.0,29.99,NNE,15,5.0,5.0,90,0.06,,,0.20,,2013-04-10 21:22:00,
2013-04-10 16:33:00,33.0,30.0,29.99,ESE,103,5.0,5.0,90,0.00,,,0.20,,2013-04-10 21:33:00,
2013-04-10 16:43:00,33.0,30.0,29.99,ESE,103,5.0,5.0,90,0.00,,,0.20,,2013-04-10 21:43:00,
2013-04-10 16:53:00,33.0,30.0,29.98,ENE,58,4.0,4.0,90,0.00,,,0.21,,2013-04-10 21:53:00,
2013-04-10 17:03:00,33.0,30.0,29.98,NE,49,3.0,3.0,90,0.00,,,0.22,,2013-04-10 22:03:00,
2013-04-10 17:12:00,33.0,30.0,29.98,NE,49,3.0,3.0,90,0.00,,,0.22,,2013-04-10 22:12:00,
2013-04-10 17:23:00,33.0,30.0,29.98,East,80,3.0,3.0,90,0.00,,,0.22,,2013-04-10 22:23:00,
2013-04-10 17:33:00,33.0,30.0,29.96,ENE,71,3.0,3.0,90,0.00,,,0.23,,2013-04-10 22:33:00,
2013-04-10 17:42:00,33.0,30.0,29.96,ENE,71,3.0,3.0,90,0.00,,,0.23,,2013-04-10 22:42:00,
2013-04-10 17:53:00,33.0,30.0,29.95,ENE,74,2.0,2.0,90,0.00,,,0.24,,2013-04-10 22:53:00,
2013-04-10 18:02:00,33.0,30.0,29.95,East,86,3.0,3.0,90,0.00,,,0.24,,2013-04-10 23:02:00,
2013-04-10 18:12:00,33.0,30.0,29.95,East,86,3.0,3.0,90,0.00,,,0.24,,2013-04-10 23:12:00,
2013-04-10 18:22:00,33.0,30.0,29.95,NNW,329,2.0,2.0,89,0.00,,,0.24,,2013-04-10 23:22:00,
2013-04-10 18:33:00,33.0,30.0,29.95,NE,49,1.0,1.0,89,0.00,,,0.25,,2013-04-10 23:33:00,
2013-04-10 18:42:00,33.0,30.0,29.95,NE,49,1.0,1.0,89,0.00,,,0.25,,2013-04-10 23:42:00,
2013-04-10 18:53:00,33.0,30.0,29.96,SE,131,7.0,7.0,89,0.00,,,0.26,,2013-04-10 23:53:00,
2013-04-10 19:02:00,34.0,31.0,29.96,NE,46,3.0,3.0,89,0.00,,,0.26,,2013-04-11 00:02:00,
2013-04-10 19:12:00,34.0,31.0,29.96,NE,46,3.0,3.0,89,0.00,,,0.26,,2013-04-11 00:12:00,
2013-04-10 19:22:00,33.0,30.0,29.93,East,95,3.0,3.0,89,0.00,,,0.26,,2013-04-11 00:22:00,
2013-04-10 19:32:00,33.0,30.0,29.93,ENE,69,2.0,2.0,90,0.00,,,0.27,,2013-04-11 00:32:00,
2013-04-10 19:42:00,33.0,30.0,29.93,ENE,69,2.0,2.0,90,0.00,,,0.27,,2013-04-11 00:42:00,
2013-04-10 19:53:00,33.0,30.0,29.91,ENE,74,2.0,2.0,90,0.00,,,0.27,,2013-04-11 00:53:00,
2013-04-10 20:02:00,33.0,30.0,29.90,NE,52,3.0,3.0,90,0.00,,,0.28,,2013-04-11 01:02:00,
2013-04-10 20:12:00,33.0,30.0,29.90,NE,52,3.0,3.0,90,0.00,,,0.28,,2013-04-11 01:12:00,
2013-04-10 20:22:00,33.0,30.0,29.90,NE,45,1.0,1.0,89,0.00,,,0.28,,2013-04-11 01:22:00,
2013-04-10 20:32:00,33.0,30.0,29.89,East,79,5.0,5.0,88,0.00,,,0.28,,2013-04-11 01:32:00,
2013-04-10 20:42:00,33.0,30.0,29.89,East,79,5.0,5.0,88,0.00,,,0.28,,2013-04-11 01:42:00,
2013-04-10 20:52:00,34.0,31.0,29.87,NE,49,3.0,3.0,88,0.00,,,0.28,,2013-04-11 01:52:00,
2013-04-10 21:02:00,34.0,31.0,29.86,East,101,3.0,3.0,87,0.00,,,0.29,,2013-04-11 02:02:00,
2013-04-10 21:12:00,34.0,30.0,29.87,East,84,2.0,2.0,86,0.00,,,0.29,,2013-04-11 02:12:00,
2013-04-10 21:22:00,34.0,30.0,29.87,East,84,2.0,2.0,86,0.00,,,0.29,,2013-04-11 02:22:00,
2013-04-10 21:32:00,34.0,30.0,29.89,NE,51,6.0,6.0,85,0.00,,,0.29,,2013-04-11 02:32:00,
2013-04-10 21:42:00,34.0,30.0,29.89,NE,51,6.0,6.0,85,0.00,,,0.29,,2013-04-11 02:42:00,
2013-04-10 21:53:00,34.0,30.0,29.90,East,91,2.0,2.0,85,0.00,,,0.29,,2013-04-11 02:53:00,
2013-04-10 22:02:00,35.0,31.0,29.90,ESE,113,4.0,4.0,84,0.00,,,0.30,,2013-04-11 03:02:00,
2013-04-10 22:12:00,35.0,31.0,29.90,ESE,113,4.0,4.0,84,0.00,,,0.30,,2013-04-11 03:12:00,
2013-04-10 22:22:00,35.0,30.0,29.91,ENE,70,1.0,1.0,83,0.00,,,0.30,,2013-04-11 03:22:00,
2013-04-10 22:33:00,35.0,30.0,29.91,ESE,112,5.0,5.0,82,0.00,,,0.30,,2013-04-11 03:33:00,
2013-04-10 22:43:00,35.0,30.0,29.90,ESE,109,8.0,8.0,82,0.00,,,0.30,,2013-04-11 03:43:00,
2013-04-10 22:53:00,35.0,30.0,29.90,ESE,109,8.0,8.0,82,0.00,,,0.30,,2013-04-11 03:53:00,
2013-04-10 23:03:00,35.0,30.0,29.88,ENE,67,4.0,4.0,82,0.00,,,0.30,,2013-04-11 04:03:00,
2013-04-10 23:13:00,35.0,30.0,29.88,NNE,26,3.0,3.0,81,0.00,,,0.31,,2013-04-11 04:13:00,
2013-04-10 23:22:00,35.0,30.0,29.88,NNE,26,3.0,3.0,81,0.00,,,0.31,,2013-04-11 04:22:00,
2013-04-10 23:33:00,35.0,30.0,29.88,ENE,62,1.0,1.0,81,0.00,,,0.31,,2013-04-11 04:33:00,
2013-04-10 23:42:00,35.0,30.0,29.88,ENE,62,1.0,1.0,81,0.00,,,0.31,,2013-04-11 04:42:00,
2013-04-10 23:53:00,35.0,30.0,29.87,ESE,123,0.0,0.0,82,0.00,,,0.31,,2013-04-11 04:53:00,